Portada
METAR-TAF:

METAR-TAF

Aeropuertos :

Frenchville, Maine, Estados Unidos

latitud: 47-17-06N, longitud: 068-18-26W, altitud: 301 m

Observación

El informe se hizo hace 17 minutos, a las 18:53 UTC
Viento 8 kt del sur-sureste
Temperatura 31°C
Humedad 29%
Presión 1021 hPa
Visibilidad: 16.1 km
Cielo despejado

METAR: KFVE 211853Z AUTO 16008KT 10SM CLR 31/11 A3014 RMK AO2 SLP198 T03110111

Hora: 15:10 (19:10 UTC)

Pronóstico

El informe se hizo hace 1 hora y 50 minutos, a las 17:20 UTC
Pronóstico válido del 21 a las 18 UTC al 22 a las 18 UTC
Viento 9 kt del sureste
Visibilidad: 10 km
Cielo despejado
A partir de las 22 a las 1700 UTC
Viento 6 kt del sureste
Visibilidad: 10 km
Cielo nuboso a una altura de 6000 ft
chaparrones en las proximidades

TAF: KFVE 211720Z 2118/2218 13009KT P6SM SKC FM221700 14006KT P6SM VCSH BKN060

Observaciones y pronósticos meteorológicos de más de 4000 aeropuertos (mensajes METAR y TAF).

Los puntos amarillos y rojos representan las estaciones disponibles.

Ponga el ratón en el punto deseado para ver el nombre de la estación.

Haga clic para ver las observaciones y los pronósticos meteorológicos.

Para cambiar el mapa : haga clic en los botones verdes con una cruz de color negro para hacer un zoom, en el botón verde con un guión para alejar o en las flechas verdes para mapas adyacentes.


METAR-TAF: